Time;durP1;ratioP1;P1;durP2;ratioP2;P2;SDS_P1;SDS_P2;PMS_P1;PMS_P2;Temp;Humidity;BMP_temperature;BMP_pressure;BME280_temperature;BME280_humidity;BME280_pressure;Samples;Min_cycle;Max_cycle;Signal;HPM_P1;HPM_P2
2021/07/09 00:01:50;;;;;;;7.03;3.00;;;23.40;61.20;;;;;;5077402;28;20090;-45
2021/07/09 00:04:16;;;;;;;5.32;3.00;;;23.40;61.30;;;;;;5077016;28;20028;-44
2021/07/09 00:06:43;;;;;;;5.60;2.92;;;23.40;61.30;;;;;;5077556;28;20089;-43
2021/07/09 00:09:09;;;;;;;6.65;2.83;;;23.50;61.40;;;;;;5077023;28;20074;-44
2021/07/09 00:11:38;;;;;;;4.72;2.97;;;23.50;61.60;;;;;;5077174;28;20036;-45
2021/07/09 00:14:08;;;;;;;4.22;3.03;;;23.50;61.90;;;;;;5077064;28;20448;-44
2021/07/09 00:16:35;;;;;;;4.85;2.80;;;23.40;61.90;;;;;;5077338;28;20416;-44
2021/07/09 00:19:03;;;;;;;8.52;3.47;;;23.40;62.10;;;;;;5076921;28;20033;-45
2021/07/09 00:21:30;;;;;;;4.80;3.45;;;23.40;62.00;;;;;;5077236;28;20325;-46
2021/07/09 00:23:56;;;;;;;12.77;4.63;;;23.40;62.20;;;;;;5076973;28;20411;-45
2021/07/09 00:26:22;;;;;;;7.00;4.35;;;23.30;62.20;;;;;;5076836;28;20068;-46
2021/07/09 00:28:48;;;;;;;9.23;4.25;;;23.30;62.20;;;;;;5076490;28;20116;-47
2021/07/09 00:31:13;;;;;;;7.68;4.45;;;23.20;62.40;;;;;;5076734;28;20066;-46
2021/07/09 00:33:39;;;;;;;6.63;3.88;;;23.20;62.60;;;;;;5076315;28;20016;-45
2021/07/09 00:36:05;;;;;;;6.55;3.70;;;23.20;62.70;;;;;;5077017;28;20032;-48
2021/07/09 00:38:30;;;;;;;7.40;3.70;;;23.10;62.70;;;;;;5076342;28;20029;-45
2021/07/09 00:40:57;;;;;;;6.75;3.90;;;23.10;62.80;;;;;;5076265;28;20102;-47
2021/07/09 00:43:23;;;;;;;4.65;3.35;;;23.10;63.10;;;;;;5076269;28;20027;-44
2021/07/09 00:45:49;;;;;;;6.38;3.47;;;23.10;63.20;;;;;;5076644;28;20024;-44
2021/07/09 00:48:15;;;;;;;10.45;3.97;;;23.10;62.90;;;;;;5075983;28;20369;-44
2021/07/09 00:50:40;;;;;;;4.70;3.30;;;23.10;63.20;;;;;;5076794;28;20029;-43
2021/07/09 00:53:07;;;;;;;6.90;3.13;;;23.10;63.10;;;;;;5075968;28;20028;-45
2021/07/09 00:55:33;;;;;;;4.60;3.20;;;23.00;63.00;;;;;;5076752;28;20078;-44
2021/07/09 00:58:00;;;;;;;6.10;3.38;;;23.10;63.10;;;;;;5076003;28;20336;-44
2021/07/09 01:00:27;;;;;;;7.43;3.38;;;23.10;63.10;;;;;;5076478;28;20033;-44
2021/07/09 01:02:54;;;;;;;5.50;3.20;;;23.00;63.30;;;;;;5075833;28;20032;-44
2021/07/09 01:05:20;;;;;;;5.80;3.00;;;23.00;63.40;;;;;;5076694;28;20029;-46
2021/07/09 01:07:46;;;;;;;6.30;3.22;;;23.00;63.30;;;;;;5075693;28;20043;-44
2021/07/09 01:10:17;;;;;;;6.70;3.05;;;23.00;63.40;;;;;;5076455;28;20035;-45
2021/07/09 01:12:45;;;;;;;6.68;3.00;;;23.00;63.40;;;;;;5076113;28;20056;-45
2021/07/09 01:15:13;;;;;;;4.40;3.17;;;23.00;63.70;;;;;;5076480;28;20024;-46
2021/07/09 01:17:40;;;;;;;4.22;3.35;;;22.90;63.80;;;;;;5075805;28;20325;-44
2021/07/09 01:20:09;;;;;;;9.23;5.05;;;22.90;63.80;;;;;;5075950;28;20031;-44
2021/07/09 01:22:37;;;;;;;7.30;3.42;;;22.90;63.90;;;;;;5075570;28;20384;-44
2021/07/09 01:25:09;;;;;;;5.65;3.03;;;22.80;64.20;;;;;;5076020;28;20032;-45
2021/07/09 01:27:35;;;;;;;4.88;3.00;;;22.80;64.20;;;;;;5075204;28;20035;-45
2021/07/09 01:30:03;;;;;;;9.30;3.88;;;22.80;64.20;;;;;;5075674;28;20245;-46
2021/07/09 01:32:29;;;;;;;4.25;3.25;;;22.80;64.30;;;;;;5075480;28;20032;-48
2021/07/09 01:34:55;;;;;;;5.50;3.90;;;22.70;64.90;;;;;;5076175;28;20103;-47
2021/07/09 01:37:20;;;;;;;7.18;3.20;;;22.70;64.60;;;;;;5075666;28;20043;-44
2021/07/09 01:39:46;;;;;;;7.32;3.63;;;22.70;64.70;;;;;;5075970;28;20081;-45
2021/07/09 01:42:12;;;;;;;5.57;3.10;;;22.70;64.70;;;;;;5075106;28;20052;-44
2021/07/09 01:44:38;;;;;;;6.85;4.20;;;22.70;64.70;;;;;;5076007;28;20028;-45
2021/07/09 01:47:05;;;;;;;7.55;4.00;;;22.70;64.80;;;;;;5075408;28;20028;-44
2021/07/09 01:49:45;;;;;;;5.45;3.40;;;22.60;64.60;;;;;;5075900;28;20039;-44
2021/07/09 01:52:12;;;;;;;4.70;3.25;;;22.60;64.80;;;;;;5075639;28;20025;-45
2021/07/09 01:54:37;;;;;;;4.65;3.17;;;22.60;64.70;;;;;;5075898;28;20404;-43
2021/07/09 01:57:03;;;;;;;3.67;2.90;;;22.60;64.80;;;;;;5075345;28;20039;-47
2021/07/09 01:59:29;;;;;;;5.25;2.90;;;22.60;64.80;;;;;;5075540;28;20020;-46
2021/07/09 02:01:54;;;;;;;6.05;3.15;;;22.60;64.80;;;;;;5075541;28;20040;-44
2021/07/09 02:04:20;;;;;;;4.75;2.90;;;22.60;64.90;;;;;;5075793;28;20036;-43
2021/07/09 02:06:46;;;;;;;9.15;3.08;;;22.70;65.00;;;;;;5075424;28;20032;-45
2021/07/09 02:09:11;;;;;;;6.07;3.30;;;22.70;64.90;;;;;;5075291;28;20131;-44
2021/07/09 02:11:37;;;;;;;5.28;2.97;;;22.70;65.00;;;;;;5075382;28;20123;-46
2021/07/09 02:14:03;;;;;;;6.40;3.05;;;22.70;65.20;;;;;;5075126;28;20468;-44
2021/07/09 02:16:28;;;;;;;7.07;3.38;;;22.70;65.10;;;;;;5075423;28;20039;-49
2021/07/09 02:18:54;;;;;;;5.22;3.15;;;22.70;65.30;;;;;;5075070;28;20111;-45
2021/07/09 02:21:19;;;;;;;4.75;3.03;;;22.80;65.60;;;;;;5075223;28;20033;-45
2021/07/09 02:23:45;;;;;;;5.80;3.00;;;22.80;65.50;;;;;;5075003;28;20332;-47
2021/07/09 02:26:11;;;;;;;4.50;3.28;;;22.80;65.60;;;;;;5075529;28;20344;-47
2021/07/09 02:28:37;;;;;;;6.55;3.10;;;22.80;65.50;;;;;;5075101;28;20028;-45
2021/07/09 02:31:03;;;;;;;4.45;3.28;;;22.80;65.60;;;;;;5075824;28;20051;-45
2021/07/09 02:33:28;;;;;;;4.55;3.17;;;22.80;65.60;;;;;;5074822;28;20031;-45
2021/07/09 02:35:54;;;;;;;4.57;2.70;;;22.80;65.60;;;;;;5075042;28;20040;-44
2021/07/09 02:38:20;;;;;;;7.03;3.30;;;22.90;66.30;;;;;;5075066;28;20115;-44
2021/07/09 02:40:45;;;;;;;7.80;3.90;;;22.90;65.90;;;;;;5077331;28;20037;-44
2021/07/09 02:43:12;;;;;;;6.20;3.38;;;22.90;66.20;;;;;;5078402;28;20052;-44
2021/07/09 02:45:38;;;;;;;4.93;3.47;;;22.90;66.30;;;;;;5079254;28;20029;-46
2021/07/09 02:48:04;;;;;;;4.95;3.30;;;22.90;66.40;;;;;;5078882;28;20375;-44
2021/07/09 02:50:29;;;;;;;5.47;3.35;;;22.90;66.30;;;;;;5079065;28;20028;-44
2021/07/09 02:52:55;;;;;;;7.70;3.78;;;22.90;66.40;;;;;;5078691;28;20036;-45
2021/07/09 02:55:22;;;;;;;10.25;4.97;;;22.90;66.60;;;;;;5079105;28;20020;-47
2021/07/09 02:57:48;;;;;;;10.50;5.18;;;22.90;66.60;;;;;;5078403;28;20086;-46
2021/07/09 03:00:16;;;;;;;6.25;4.65;;;22.90;66.30;;;;;;5078857;28;20033;-45
2021/07/09 03:02:42;;;;;;;11.32;5.65;;;22.80;66.10;;;;;;5078353;28;20045;-46
2021/07/09 03:05:10;;;;;;;11.75;5.95;;;22.80;65.90;;;;;;5078940;28;20070;-46
2021/07/09 03:07:37;;;;;;;8.18;4.90;;;22.80;66.30;;;;;;5078334;28;20088;-46
2021/07/09 03:10:07;;;;;;;7.63;4.72;;;22.70;66.50;;;;;;5078581;28;20039;-45
2021/07/09 03:12:33;;;;;;;8.38;4.80;;;22.70;66.70;;;;;;5077963;28;20039;-48
2021/07/09 03:14:59;;;;;;;6.82;4.55;;;22.70;66.80;;;;;;5078562;28;20020;-44
2021/07/09 03:17:24;;;;;;;12.60;4.43;;;22.70;66.90;;;;;;5077790;28;20028;-44
2021/07/09 03:19:50;;;;;;;14.30;4.45;;;22.80;66.30;;;;;;5078371;28;20029;-46
2021/07/09 03:22:16;;;;;;;8.02;3.60;;;22.80;65.80;;;;;;5077998;28;20039;-43
2021/07/09 03:24:41;;;;;;;8.25;3.22;;;22.80;65.30;;;;;;5078291;28;20082;-44
2021/07/09 03:27:08;;;;;;;6.55;3.67;;;22.90;65.30;;;;;;5077879;28;20037;-45
2021/07/09 03:29:33;;;;;;;8.77;3.60;;;23.00;65.60;;;;;;5078069;28;20055;-45
2021/07/09 03:31:59;;;;;;;5.25;3.17;;;23.00;65.60;;;;;;5076635;28;20373;-45
2021/07/09 03:34:25;;;;;;;8.43;3.90;;;23.10;65.50;;;;;;5078085;28;20020;-45
2021/07/09 03:36:51;;;;;;;10.93;4.22;;;23.10;65.20;;;;;;5077662;28;20059;-46
2021/07/09 03:39:17;;;;;;;12.43;4.47;;;23.10;64.90;;;;;;5077871;28;20392;-44
2021/07/09 03:41:44;;;;;;;7.10;3.60;;;23.20;64.80;;;;;;5077355;28;20067;-44
2021/07/09 03:44:10;;;;;;;7.47;3.78;;;23.30;64.70;;;;;;5077466;28;20028;-45
2021/07/09 03:46:37;;;;;;;6.28;3.17;;;23.30;64.70;;;;;;5077582;28;20064;-44
2021/07/09 03:49:03;;;;;;;6.07;3.40;;;23.40;64.80;;;;;;5077336;28;20408;-47
2021/07/09 03:51:29;;;;;;;10.05;3.60;;;23.50;65.10;;;;;;5077060;28;20028;-44
2021/07/09 03:53:56;;;;;;;5.90;3.33;;;23.60;65.60;;;;;;5077102;28;20148;-47
2021/07/09 03:56:22;;;;;;;5.80;3.80;;;23.70;65.10;;;;;;5077709;28;20378;-49
2021/07/09 03:58:49;;;;;;;10.07;3.40;;;23.70;65.50;;;;;;5076900;28;20067;-45
2021/07/09 04:01:14;;;;;;;8.18;3.60;;;23.80;64.70;;;;;;5077480;28;20116;-44
2021/07/09 04:03:40;;;;;;;5.63;3.95;;;23.80;64.50;;;;;;5077348;28;20112;-44
2021/07/09 04:06:05;;;;;;;5.13;3.15;;;23.90;64.10;;;;;;5077061;28;20086;-44
2021/07/09 04:08:31;;;;;;;5.10;3.45;;;24.00;64.00;;;;;;5076747;28;20028;-44
2021/07/09 04:10:57;;;;;;;9.82;3.20;;;24.00;63.80;;;;;;5077163;28;20439;-44
2021/07/09 04:13:22;;;;;;;7.30;3.25;;;24.10;63.00;;;;;;5076570;28;20230;-45
2021/07/09 04:15:48;;;;;;;7.65;3.25;;;24.10;62.90;;;;;;5077112;28;20062;-46
2021/07/09 04:18:14;;;;;;;4.03;3.20;;;24.20;62.80;;;;;;5076948;28;20047;-44
2021/07/09 04:20:39;;;;;;;11.98;6.82;;;24.30;62.90;;;;;;5077005;28;20028;-46
2021/07/09 04:23:05;;;;;;;6.47;3.97;;;24.30;61.50;;;;;;5076705;28;20036;-45
2021/07/09 04:25:31;;;;;;;4.72;3.10;;;24.40;60.90;;;;;;5077415;28;20093;-45
2021/07/09 04:27:56;;;;;;;7.57;3.10;;;24.50;60.70;;;;;;5076466;28;20041;-46
2021/07/09 04:30:22;;;;;;;9.98;3.50;;;24.50;60.40;;;;;;5076853;28;20119;-44
2021/07/09 04:32:48;;;;;;;7.60;3.00;;;24.60;60.20;;;;;;5076224;28;20032;-45
2021/07/09 04:35:13;;;;;;;7.60;3.05;;;24.60;60.10;;;;;;5076896;28;20016;-45
2021/07/09 04:37:40;;;;;;;7.35;3.28;;;24.70;59.90;;;;;;5076311;28;20033;-44
2021/07/09 04:40:06;;;;;;;5.18;3.20;;;24.70;60.10;;;;;;5076591;28;20029;-46
2021/07/09 04:42:32;;;;;;;5.47;3.38;;;24.80;59.60;;;;;;5076022;28;20424;-45
2021/07/09 04:44:58;;;;;;;9.68;4.75;;;24.80;59.20;;;;;;5076616;28;20042;-45
2021/07/09 04:47:24;;;;;;;5.35;3.30;;;24.80;59.10;;;;;;5075775;28;20083;-48
2021/07/09 04:49:49;;;;;;;6.32;3.05;;;24.90;58.80;;;;;;5076356;28;20032;-44
2021/07/09 04:52:15;;;;;;;8.10;5.45;;;24.90;58.50;;;;;;5075965;28;20320;-46
2021/07/09 04:54:41;;;;;;;9.15;5.32;;;25.00;58.40;;;;;;5074513;28;20033;-44
2021/07/09 04:57:06;;;;;;;5.18;3.80;;;25.10;58.50;;;;;;5057825;28;20045;-44
2021/07/09 04:59:32;;;;;;;9.27;3.67;;;25.10;58.50;;;;;;5073972;28;20089;-41
2021/07/09 05:01:58;;;;;;;6.47;3.80;;;25.20;58.90;;;;;;5075245;28;20036;-46
2021/07/09 05:04:23;;;;;;;6.50;3.72;;;25.20;58.40;;;;;;5075784;28;20028;-45
2021/07/09 05:06:49;;;;;;;5.03;3.42;;;25.20;58.30;;;;;;5076099;28;20328;-45
2021/07/09 05:09:15;;;;;;;4.68;3.05;;;25.30;58.00;;;;;;5075937;28;20345;-45
2021/07/09 05:11:40;;;;;;;5.57;3.58;;;25.30;57.90;;;;;;5072309;28;20021;-47
2021/07/09 05:14:06;;;;;;;7.15;3.25;;;25.40;57.80;;;;;;5066608;28;20057;-45
2021/07/09 05:16:34;;;;;;;4.55;3.15;;;25.40;57.40;;;;;;5075839;28;20028;-45
2021/07/09 05:19:00;;;;;;;6.30;3.10;;;25.40;57.50;;;;;;5075472;28;20035;-46
2021/07/09 05:21:26;;;;;;;7.90;3.67;;;25.50;57.40;;;;;;5075925;28;20036;-44
2021/07/09 05:23:52;;;;;;;7.40;3.45;;;25.50;58.70;;;;;;5075189;28;20021;-49
2021/07/09 05:26:19;;;;;;;8.07;3.25;;;25.60;58.20;;;;;;5059977;28;20041;-46
2021/07/09 05:28:44;;;;;;;7.45;3.38;;;25.60;57.80;;;;;;5055101;28;20031;-44
2021/07/09 05:31:10;;;;;;;7.25;3.35;;;25.60;57.90;;;;;;5055444;28;20032;-46
2021/07/09 05:33:36;;;;;;;7.05;3.53;;;25.60;58.00;;;;;;5055393;28;20021;-44
2021/07/09 05:36:02;;;;;;;8.35;3.90;;;25.70;57.80;;;;;;5055685;28;20329;-46
2021/07/09 05:38:28;;;;;;;7.25;4.13;;;25.70;57.80;;;;;;5055192;28;20028;-45
2021/07/09 05:40:53;;;;;;;5.20;3.30;;;25.70;57.90;;;;;;5054920;28;20433;-45
2021/07/09 05:43:20;;;;;;;4.20;3.20;;;25.70;58.20;;;;;;5054868;28;20025;-44
2021/07/09 05:45:46;;;;;;;5.70;3.30;;;25.80;58.10;;;;;;5055707;28;20051;-43
2021/07/09 05:48:11;;;;;;;4.60;3.30;;;25.80;58.00;;;;;;5064754;28;20041;-45
2021/07/09 05:50:37;;;;;;;5.07;3.30;;;25.80;58.30;;;;;;5060162;28;20111;-47
2021/07/09 05:53:03;;;;;;;6.00;3.63;;;25.80;58.10;;;;;;5063472;28;20075;-45
2021/07/09 05:55:28;;;;;;;5.47;3.72;;;25.90;57.90;;;;;;5055355;28;20036;-45
2021/07/09 05:57:54;;;;;;;6.05;3.95;;;25.90;57.90;;;;;;5054573;28;20179;-45
2021/07/09 06:00:20;;;;;;;5.15;3.50;;;26.00;57.90;;;;;;5055273;28;20078;-44
2021/07/09 06:02:45;;;;;;;5.47;3.78;;;25.90;57.80;;;;;;5054670;28;20025;-44
2021/07/09 06:05:11;;;;;;;4.72;3.28;;;26.00;57.60;;;;;;5072303;28;20033;-45
2021/07/09 06:07:37;;;;;;;5.78;3.28;;;26.00;57.40;;;;;;5057762;28;20033;-44
2021/07/09 06:10:05;;;;;;;5.05;3.72;;;26.10;57.30;;;;;;5055140;28;20068;-44
2021/07/09 06:12:31;;;;;;;9.60;3.97;;;26.10;57.20;;;;;;5071726;28;20035;-45
2021/07/09 06:14:57;;;;;;;8.20;3.63;;;26.10;57.20;;;;;;5065811;28;20021;-45
2021/07/09 06:17:23;;;;;;;4.53;3.25;;;26.20;57.10;;;;;;5075892;28;20302;-46
2021/07/09 06:19:49;;;;;;;5.60;3.20;;;26.20;57.00;;;;;;5079168;28;20025;-45
2021/07/09 06:22:15;;;;;;;4.65;3.42;;;26.20;56.90;;;;;;5071611;28;20037;-46
2021/07/09 06:24:40;;;;;;;6.50;3.17;;;26.30;56.80;;;;;;5059227;28;20029;-43
2021/07/09 06:27:07;;;;;;;5.25;3.08;;;26.30;56.40;;;;;;5058680;28;20037;-44
2021/07/09 06:29:33;;;;;;;7.60;3.90;;;26.30;56.00;;;;;;5060973;28;20032;-45
2021/07/09 06:31:59;;;;;;;4.97;3.03;;;26.30;56.20;;;;;;5067568;28;20032;-45
2021/07/09 06:34:25;;;;;;;4.72;3.60;;;26.30;56.10;;;;;;5058806;28;20294;-45
2021/07/09 06:36:50;;;;;;;6.10;3.45;;;26.40;55.70;;;;;;5058853;28;20052;-45
2021/07/09 06:39:16;;;;;;;8.27;4.10;;;26.40;54.90;;;;;;5059017;28;20393;-44
2021/07/09 06:41:42;;;;;;;7.00;3.60;;;26.40;55.40;;;;;;5058239;28;20052;-45
2021/07/09 06:44:07;;;;;;;7.22;3.20;;;26.40;54.90;;;;;;5058522;28;20420;-44
2021/07/09 06:46:33;;;;;;;7.53;3.25;;;26.50;54.60;;;;;;5058788;28;20424;-46
2021/07/09 06:48:59;;;;;;;6.75;4.85;;;26.50;54.10;;;;;;5058504;28;20078;-44
2021/07/09 06:51:24;;;;;;;6.53;3.45;;;26.60;54.90;;;;;;5058790;28;20066;-45
2021/07/09 06:53:50;;;;;;;6.68;3.97;;;26.60;54.00;;;;;;5058278;28;20405;-44
2021/07/09 06:56:16;;;;;;;5.97;3.53;;;26.60;53.10;;;;;;5058540;28;20029;-44
2021/07/09 06:58:42;;;;;;;11.18;3.58;;;26.70;52.70;;;;;;5057587;28;20033;-44
2021/07/09 07:01:08;;;;;;;4.60;3.38;;;26.70;53.20;;;;;;5058383;28;20040;-44
2021/07/09 07:03:34;;;;;;;6.45;3.80;;;26.70;53.70;;;;;;5057804;28;20296;-44
2021/07/09 07:06:00;;;;;;;5.63;3.90;;;26.80;53.50;;;;;;5058330;28;20037;-47
2021/07/09 07:08:26;;;;;;;6.43;4.07;;;26.80;53.30;;;;;;5057940;28;20425;-45
2021/07/09 07:10:53;;;;;;;8.45;3.85;;;26.90;52.80;;;;;;5058167;28;20119;-46
2021/07/09 07:13:20;;;;;;;7.65;4.00;;;26.90;52.70;;;;;;5057802;28;20017;-45
2021/07/09 07:15:46;;;;;;;7.85;4.15;;;27.00;53.00;;;;;;5058427;28;20313;-45
2021/07/09 07:18:12;;;;;;;11.30;5.20;;;27.00;53.60;;;;;;5057871;28;20040;-44
2021/07/09 07:20:43;;;;;;;5.10;4.30;;;27.10;53.00;;;;;;5058217;28;20121;-44
2021/07/09 07:23:11;;;;;;;4.72;3.58;;;27.10;52.90;;;;;;5057876;28;20037;-44
2021/07/09 07:25:37;;;;;;;8.65;4.22;;;27.20;52.30;;;;;;5056837;28;20052;-45
2021/07/09 07:28:04;;;;;;;6.45;4.65;;;27.30;53.00;;;;;;5057160;28;20082;-46
2021/07/09 07:30:30;;;;;;;9.32;4.05;;;27.30;53.00;;;;;;5057952;28;20305;-43
2021/07/09 07:32:56;;;;;;;6.80;4.30;;;27.30;52.40;;;;;;5057332;28;20418;-45
2021/07/09 07:35:22;;;;;;;8.02;4.45;;;27.40;52.90;;;;;;5057380;28;20078;-46
2021/07/09 07:37:48;;;;;;;5.20;3.80;;;27.40;53.00;;;;;;5057193;28;20029;-48
2021/07/09 07:40:14;;;;;;;7.90;4.30;;;27.40;53.00;;;;;;5057048;28;20024;-45
2021/07/09 07:42:40;;;;;;;7.53;4.03;;;27.50;53.00;;;;;;5076181;28;20417;-45
2021/07/09 07:45:06;;;;;;;6.90;4.40;;;27.50;52.90;;;;;;5077389;28;20095;-47
2021/07/09 07:47:32;;;;;;;5.22;3.72;;;27.50;52.80;;;;;;5076766;28;20419;-46
2021/07/09 07:49:57;;;;;;;9.38;4.35;;;27.60;52.80;;;;;;5077248;28;20281;-45
2021/07/09 07:52:23;;;;;;;9.90;4.10;;;27.60;52.20;;;;;;5077103;28;20530;-46
2021/07/09 07:54:49;;;;;;;5.95;4.07;;;27.60;52.30;;;;;;5077175;28;20025;-43
2021/07/09 07:57:15;;;;;;;7.60;4.07;;;27.60;52.10;;;;;;5077125;28;20105;-44
2021/07/09 07:59:41;;;;;;;8.00;4.20;;;27.70;52.00;;;;;;5077273;28;20412;-45
2021/07/09 08:02:08;;;;;;;6.93;4.43;;;27.70;51.40;;;;;;5076403;28;20036;-44
2021/07/09 08:04:34;;;;;;;6.30;3.80;;;27.70;51.80;;;;;;5076949;28;20058;-46
2021/07/09 08:07:00;;;;;;;5.63;4.15;;;27.80;52.10;;;;;;5076547;28;20032;-45
2021/07/09 08:09:26;;;;;;;8.05;4.50;;;27.80;52.00;;;;;;5076555;28;20041;-45
2021/07/09 08:11:52;;;;;;;7.03;4.07;;;27.90;52.00;;;;;;5076712;28;20107;-45
2021/07/09 08:14:19;;;;;;;7.32;3.88;;;27.90;51.80;;;;;;5076902;28;20025;-45
2021/07/09 08:16:50;;;;;;;6.32;3.78;;;27.90;51.10;;;;;;5076323;28;20108;-44
2021/07/09 08:19:16;;;;;;;5.53;4.18;;;27.90;50.50;;;;;;5076556;28;20451;-44
2021/07/09 08:21:42;;;;;;;5.13;3.88;;;27.90;51.00;;;;;;5074885;28;20075;-45
2021/07/09 08:24:08;;;;;;;7.25;4.10;;;28.00;51.00;;;;;;5075993;28;20040;-43
2021/07/09 08:26:34;;;;;;;6.35;3.80;;;28.00;51.20;;;;;;5075010;28;20037;-47
2021/07/09 08:29:00;;;;;;;6.93;3.40;;;28.10;51.20;;;;;;5076444;28;20301;-44
2021/07/09 08:31:25;;;;;;;6.07;3.88;;;28.10;50.20;;;;;;5076062;28;20294;-44
2021/07/09 08:33:51;;;;;;;10.73;3.33;;;28.10;51.20;;;;;;5076032;28;20033;-45
2021/07/09 08:36:17;;;;;;;7.13;3.97;;;28.20;51.50;;;;;;5074240;28;20096;-44
2021/07/09 08:38:43;;;;;;;5.90;3.88;;;28.30;51.10;;;;;;5065425;28;20428;-44
2021/07/09 08:41:13;;;;;;;5.93;3.70;;;28.30;51.00;;;;;;5055655;28;20053;-47
2021/07/09 08:43:38;;;;;;;4.72;3.70;;;28.30;51.40;;;;;;5056112;28;20036;-49
2021/07/09 08:46:04;;;;;;;6.82;3.10;;;28.40;51.00;;;;;;5055689;28;20033;-48
2021/07/09 08:48:31;;;;;;;10.98;6.43;;;28.50;49.50;;;;;;5055913;28;20025;-44
2021/07/09 08:50:58;;;;;;;4.20;3.28;;;28.50;50.10;;;;;;5055923;28;20029;-45
2021/07/09 08:53:23;;;;;;;6.85;3.33;;;28.60;49.60;;;;;;5055749;28;20024;-44
2021/07/09 08:55:49;;;;;;;5.28;3.58;;;28.60;50.00;;;;;;5055525;28;20108;-45
2021/07/09 08:58:14;;;;;;;7.43;3.72;;;28.70;50.10;;;;;;5055444;28;20025;-44
2021/07/09 09:00:41;;;;;;;7.50;4.18;;;28.70;49.10;;;;;;5055706;28;20044;-45
2021/07/09 09:03:15;;;;;;;8.70;4.10;;;28.70;49.30;;;;;;5055579;28;20029;-45
2021/07/09 09:05:42;;;;;;;9.43;4.65;;;28.80;48.80;;;;;;5055815;28;20103;-45
2021/07/09 09:08:08;;;;;;;5.95;4.15;;;28.80;47.10;;;;;;5055030;28;20029;-44
2021/07/09 09:10:39;;;;;;;6.40;3.53;;;28.90;47.10;;;;;;5055723;28;20108;-45
2021/07/09 09:13:14;;;;;;;5.88;3.97;;;29.00;47.40;;;;;;5055074;28;20033;-44
2021/07/09 09:15:44;;;;;;;4.50;3.50;;;29.10;46.20;;;;;;5055211;28;20057;-45
2021/07/09 09:18:25;;;;;;;;;;;29.20;46.40;;;;;;5055777;28;20116;-44
2021/07/09 09:21:02;;;;;;;5.68;4.28;;;29.30;46.60;;;;;;5055264;28;19912;-45
2021/07/09 09:23:30;;;;;;;7.97;4.10;;;29.30;45.80;;;;;;5055238;28;20029;-46
2021/07/09 09:25:56;;;;;;;6.53;3.88;;;29.40;45.70;;;;;;5055287;28;20036;-47
2021/07/09 09:28:22;;;;;;;8.77;3.45;;;29.50;44.80;;;;;;5055226;28;20053;-49
2021/07/09 09:30:54;;;;;;;9.65;4.18;;;29.60;45.50;;;;;;5055135;28;20421;-45
2021/07/09 09:33:20;;;;;;;8.13;4.82;;;29.60;46.00;;;;;;5055307;28;20441;-46
2021/07/09 09:35:57;;;;;;;9.73;4.68;;;29.70;44.50;;;;;;5055363;28;20064;-45
2021/07/09 09:38:28;;;;;;;8.90;4.20;;;29.80;43.40;;;;;;5054967;28;20021;-45
2021/07/09 09:40:55;;;;;;;5.18;3.60;;;29.90;43.70;;;;;;5054692;28;20409;-45
2021/07/09 09:43:24;;;;;;;8.98;5.20;;;30.00;43.40;;;;;;5054745;28;20028;-45
2021/07/09 09:46:04;;;;;;;10.98;4.47;;;30.00;43.40;;;;;;5054961;28;20033;-45
2021/07/09 09:48:47;;;;;;;4.28;3.60;;;30.10;43.50;;;;;;5054533;28;20021;-46
2021/07/09 09:51:29;;;;;;;8.57;4.13;;;30.20;43.00;;;;;;5054892;28;20466;-45
2021/07/09 09:53:57;;;;;;;13.45;4.50;;;30.20;43.00;;;;;;5057258;28;20155;-44
2021/07/09 09:56:33;;;;;;;11.93;4.10;;;30.20;43.80;;;;;;5063734;28;20032;-44
2021/07/09 09:59:25;;;;;;;6.57;3.78;;;30.30;43.60;;;;;;5055089;28;20041;-45
2021/07/09 10:02:05;;;;;;;7.35;4.00;;;30.30;41.40;;;;;;5054356;28;20037;-46
2021/07/09 10:04:33;;;;;;;12.18;4.45;;;30.40;42.10;;;;;;5055179;28;20045;-46
2021/07/09 10:07:00;;;;;;;6.82;4.00;;;30.40;42.80;;;;;;5054834;28;20055;-49
2021/07/09 10:09:28;;;;;;;8.35;4.03;;;30.40;43.10;;;;;;5064572;28;20108;-44
2021/07/09 10:11:55;;;;;;;13.43;5.45;;;30.50;43.00;;;;;;5055730;28;20033;-44
2021/07/09 10:14:23;;;;;;;12.35;3.88;;;30.50;43.20;;;;;;5054963;28;20029;-42
2021/07/09 10:16:51;;;;;;;4.20;3.50;;;30.60;43.10;;;;;;5054311;28;20029;-42
2021/07/09 10:19:45;;;;;;;7.03;3.80;;;30.60;43.10;;;;;;5054418;28;20029;-42
2021/07/09 10:22:12;;;;;;;12.02;3.80;;;30.60;41.90;;;;;;5053545;28;20056;-42
2021/07/09 10:24:45;;;;;;;4.75;3.33;;;30.60;42.70;;;;;;5055045;28;20032;-44
2021/07/09 10:27:13;;;;;;;5.30;3.65;;;30.70;42.80;;;;;;5054639;28;20041;-43
2021/07/09 10:29:45;;;;;;;7.13;3.90;;;30.80;42.70;;;;;;5055066;28;20033;-44
2021/07/09 10:32:12;;;;;;;5.50;3.95;;;30.80;42.00;;;;;;5053976;28;20110;-43
2021/07/09 10:34:48;;;;;;;10.10;4.32;;;30.90;42.20;;;;;;5054670;28;20052;-43
2021/07/09 10:37:20;;;;;;;5.97;4.22;;;30.90;42.50;;;;;;5054507;28;20432;-45
2021/07/09 10:39:48;;;;;;;8.00;4.53;;;31.00;41.90;;;;;;5054904;28;20037;-42
2021/07/09 10:42:20;;;;;;;7.07;3.75;;;31.00;42.00;;;;;;5053287;28;20041;-43
2021/07/09 10:45:08;;;;;;;8.35;4.32;;;31.10;41.60;;;;;;5054890;28;20356;-44
2021/07/09 10:47:49;;;;;;;12.00;4.90;;;31.20;40.20;;;;;;5054242;28;20061;-43
2021/07/09 10:50:15;;;;;;;7.93;4.18;;;31.40;39.00;;;;;;5055115;28;20036;-42
2021/07/09 10:52:50;;;;;;;8.63;4.18;;;31.40;38.60;;;;;;5054340;28;20025;-44
2021/07/09 10:55:25;;;;;;;8.10;4.32;;;31.60;39.60;;;;;;5054824;28;20033;-42
2021/07/09 10:58:19;;;;;;;5.47;3.90;;;31.70;40.60;;;;;;5053828;28;20128;-42
2021/07/09 11:00:51;;;;;;;6.15;4.22;;;31.70;39.60;;;;;;5055604;28;20377;-46
2021/07/09 11:03:28;;;;;;;4.55;3.53;;;31.70;40.40;;;;;;5057869;28;20437;-44
2021/07/09 11:05:56;;;;;;;8.10;4.25;;;31.90;41.00;;;;;;5057899;28;20123;-43
2021/07/09 11:08:33;;;;;;;7.00;3.80;;;31.90;39.50;;;;;;5057832;28;20036;-42
2021/07/09 11:11:12;;;;;;;5.30;3.50;;;32.00;40.30;;;;;;5058002;28;20044;-42
2021/07/09 11:13:41;;;;;;;10.75;4.45;;;32.00;40.70;;;;;;5057769;28;20025;-44
2021/07/09 11:16:23;;;;;;;5.03;3.67;;;32.10;38.90;;;;;;5057840;28;20115;-43
2021/07/09 11:18:52;;;;;;;8.68;4.63;;;32.20;39.40;;;;;;5057731;28;20025;-44
2021/07/09 11:21:37;;;;;;;7.13;4.22;;;32.20;38.60;;;;;;5057897;28;20039;-44
2021/07/09 11:24:20;;;;;;;8.13;4.00;;;32.30;37.30;;;;;;5057452;28;20424;-44
2021/07/09 11:26:51;;;;;;;6.30;4.28;;;32.40;38.30;;;;;;5057893;28;20037;-45
2021/07/09 11:29:24;;;;;;;6.68;3.88;;;32.50;39.10;;;;;;5057484;28;20108;-44
2021/07/09 11:31:51;;;;;;;8.82;4.60;;;32.60;39.50;;;;;;5057836;28;20112;-44
2021/07/09 11:34:19;;;;;;;7.57;4.60;;;32.60;39.30;;;;;;5061732;28;20401;-44
2021/07/09 11:37:00;;;;;;;5.45;4.10;;;32.70;39.80;;;;;;5063424;28;20091;-43
2021/07/09 11:39:53;;;;;;;6.35;3.75;;;32.80;39.70;;;;;;5077040;28;20316;-44
2021/07/09 11:42:20;;;;;;;10.95;5.13;;;32.80;37.90;;;;;;5076129;28;20147;-43
2021/07/09 11:45:00;;;;;;;8.65;4.28;;;33.00;37.90;;;;;;5077412;28;20024;-44
2021/07/09 11:47:26;;;;;;;;;;;33.10;38.30;;;;;;5077015;28;20029;-44
2021/07/09 11:49:56;;;;;;;5.95;4.30;;;33.20;38.50;;;;;;5076735;28;19916;-44
2021/07/09 11:52:33;;;;;;;6.53;4.25;;;33.30;38.40;;;;;;5076659;28;20040;-45
2021/07/09 11:55:07;;;;;;;7.70;4.38;;;33.50;38.70;;;;;;5077332;28;20086;-44
2021/07/09 11:57:36;;;;;;;6.57;3.80;;;33.60;38.30;;;;;;5076208;28;20029;-45
2021/07/09 12:00:13;;;;;;;6.10;4.13;;;33.80;38.70;;;;;;5077346;28;20063;-44
2021/07/09 12:02:40;;;;;;;5.93;4.05;;;33.90;38.50;;;;;;5075987;28;20025;-44
2021/07/09 12:05:14;;;;;;;7.82;4.10;;;34.10;38.80;;;;;;5077358;28;20040;-46
2021/07/09 12:07:51;;;;;;;5.13;4.00;;;34.20;38.70;;;;;;5076464;28;20371;-45
2021/07/09 12:10:22;;;;;;;7.63;3.92;;;34.30;38.30;;;;;;5077149;28;20072;-45
2021/07/09 12:13:02;;;;;;;6.95;3.88;;;34.40;38.40;;;;;;5076030;28;20067;-45
2021/07/09 12:15:28;;;;;;;8.55;4.07;;;34.50;38.20;;;;;;5076886;28;20039;-45
2021/07/09 12:17:58;;;;;;;6.38;4.07;;;34.70;38.30;;;;;;5075941;28;20138;-45
2021/07/09 12:20:32;;;;;;;6.95;3.83;;;34.80;37.80;;;;;;5077147;28;20036;-45
2021/07/09 12:23:03;;;;;;;7.18;4.22;;;34.90;38.00;;;;;;5075916;28;20079;-48
2021/07/09 12:25:32;;;;;;;6.28;4.00;;;35.00;36.90;;;;;;5077008;28;20024;-47
2021/07/09 12:28:06;;;;;;;9.73;4.25;;;35.10;37.50;;;;;;5075755;28;20029;-47
2021/07/09 12:30:46;;;;;;;6.63;4.00;;;35.20;35.80;;;;;;5076424;28;20039;-46
2021/07/09 12:33:26;;;;;;;5.10;3.85;;;35.30;36.60;;;;;;5076206;28;20033;-45
2021/07/09 12:36:03;;;;;;;7.05;4.15;;;35.40;37.00;;;;;;5076465;28;20424;-45
2021/07/09 12:38:30;;;;;;;9.43;4.60;;;35.60;36.20;;;;;;5075944;28;20424;-45
2021/07/09 12:41:03;;;;;;;7.65;4.03;;;35.70;35.30;;;;;;5075982;28;20060;-43
2021/07/09 12:43:29;;;;;;;6.32;4.15;;;35.80;35.40;;;;;;5075929;28;20107;-44
2021/07/09 12:46:05;;;;;;;9.93;4.30;;;35.90;35.70;;;;;;5074122;28;20040;-46
2021/07/09 12:48:35;;;;;;;4.57;4.05;;;36.10;35.00;;;;;;5064681;28;20372;-45
2021/07/09 12:51:20;;;;;;;7.38;4.63;;;36.30;34.90;;;;;;5067171;28;20060;-46